Time;durP1;ratioP1;P1;durP2;ratioP2;P2;SDS_P1;SDS_P2;PMS_P1;PMS_P2;Temp;Humidity;BMP_temperature;BMP_pressure;BME280_temperature;BME280_humidity;BME280_pressure;Samples;Min_cycle;Max_cycle;Signal;HPM_P1;HPM_P2
2022/07/08 00:02:01;;;;;;;;;;;27.20;99.90;;;;;;5091604;28;19915;-73
2022/07/08 00:04:27;;;;;;;;;;;27.20;99.90;;;;;;5091217;28;20328;-73
2022/07/08 00:06:53;;;;;;;;;;;27.30;99.90;;;;;;5091439;28;19904;-73
2022/07/08 00:09:19;;;;;;;;;;;27.40;99.90;;;;;;5091323;28;20344;-73
2022/07/08 00:11:45;;;;;;;;;;;27.50;99.90;;;;;;5091044;28;19916;-73
2022/07/08 00:14:11;;;;;;;;;;;27.40;99.90;;;;;;5091042;28;20389;-73
2022/07/08 00:16:40;;;;;;;;;;;27.40;99.90;;;;;;5091331;28;19968;-72
2022/07/08 00:19:11;;;;;;;;;;;27.50;99.90;;;;;;5089662;28;19904;-74
2022/07/08 00:21:37;;;;;;;;;;;27.50;99.90;;;;;;5089579;28;19908;-72
2022/07/08 00:24:03;;;;;;;;;;;27.50;99.90;;;;;;5090928;28;20009;-72
2022/07/08 00:26:29;;;;;;;;;;;27.60;99.90;;;;;;5091410;28;20386;-72
2022/07/08 00:28:55;;;;;;;;;;;27.50;99.90;;;;;;5091382;28;19908;-72
2022/07/08 00:31:21;;;;;;;;;;;27.40;99.90;;;;;;5095253;28;20331;-73
2022/07/08 00:33:48;;;;;;;;;;;27.50;99.90;;;;;;5093641;28;19965;-72
2022/07/08 00:36:14;;;;;;;;;;;27.50;99.90;;;;;;5095474;28;20274;-72
2022/07/08 00:38:40;;;;;;;;;;;27.40;99.90;;;;;;5095073;28;20412;-73
2022/07/08 00:41:05;;;;;;;;;;;27.30;99.90;;;;;;5095283;28;19904;-73
2022/07/08 00:43:38;;;;;;;;;;;27.40;99.90;;;;;;5095059;28;19972;-72
2022/07/08 00:46:05;;;;;;;;;;;27.40;99.90;;;;;;5094915;28;20307;-72
2022/07/08 00:48:31;;;;;;;;;;;27.40;99.90;;;;;;5095229;28;19930;-72
2022/07/08 00:50:58;;;;;;;;;;;27.40;99.90;;;;;;5095010;28;19911;-73
2022/07/08 00:53:24;;;;;;;;;;;27.40;99.90;;;;;;5094789;28;19904;-72
2022/07/08 00:55:50;;;;;;;;;;;27.40;99.90;;;;;;5095040;28;20031;-72
2022/07/08 00:58:16;;;;;;;;;;;27.40;99.90;;;;;;5094687;28;19995;-72
2022/07/08 01:00:42;;;;;;;;;;;27.40;99.90;;;;;;5094710;28;19908;-73
2022/07/08 01:03:08;;;;;;;;;;;27.40;99.90;;;;;;5094679;28;19911;-72
2022/07/08 01:05:33;;;;;;;;;;;27.40;99.90;;;;;;5094952;28;20266;-72
2022/07/08 01:07:59;;;;;;;;;;;27.30;99.90;;;;;;5092858;28;20010;-73
2022/07/08 01:10:25;;;;;;;;;;;27.30;99.90;;;;;;5094346;28;20350;-73
2022/07/08 01:12:51;;;;;;;;;;;27.30;99.90;;;;;;5094812;28;19961;-73
2022/07/08 01:15:20;;;;;;;;;;;27.30;99.90;;;;;;5094351;28;19999;-73
2022/07/08 01:17:47;;;;;;;;;;;27.30;99.90;;;;;;5094670;28;19904;-73
2022/07/08 01:20:13;;;;;;;;;;;27.30;99.90;;;;;;5094484;28;20282;-73
2022/07/08 01:22:39;;;;;;;;;;;27.30;99.90;;;;;;5094547;28;20240;-73
2022/07/08 01:25:06;;;;;;;;;;;27.30;99.90;;;;;;5094147;28;19961;-73
2022/07/08 01:27:32;;;;;;;;;;;27.30;99.90;;;;;;5093995;28;19908;-74
2022/07/08 01:29:58;;;;;;;;;;;27.30;99.90;;;;;;5093979;28;19915;-73
2022/07/08 01:32:29;;;;;;;;;;;27.20;99.90;;;;;;5094215;28;19908;-73
2022/07/08 01:34:55;;;;;;;;;;;27.10;99.90;;;;;;5094217;28;19908;-73
2022/07/08 01:37:21;;;;;;;;;;;27.00;99.90;;;;;;5094273;28;19908;-73
2022/07/08 01:39:47;;;;;;;;;;;27.00;99.90;;;;;;5094119;28;19904;-73
2022/07/08 01:42:14;;;;;;;;;;;27.00;99.90;;;;;;5092840;28;19911;-73
2022/07/08 01:44:40;;;;;;;;;;;27.00;99.90;;;;;;5093817;28;20336;-73
2022/07/08 01:47:06;;;;;;;;;;;27.10;99.90;;;;;;5094066;28;19957;-73
2022/07/08 01:49:31;;;;;;;;;;;27.10;99.90;;;;;;5093784;28;19915;-73
2022/07/08 01:51:58;;;;;;;;;;;27.10;99.90;;;;;;5093613;28;19929;-72
2022/07/08 01:54:24;;;;;;;;;;;27.10;99.90;;;;;;5093826;28;19943;-72
2022/07/08 01:56:49;;;;;;;;;;;27.10;99.90;;;;;;5091992;28;19935;-72
2022/07/08 01:59:15;;;;;;;;;;;27.10;99.90;;;;;;5093680;28;19904;-73
2022/07/08 02:01:41;;;;;;;;;;;27.20;99.90;;;;;;5093333;28;19928;-73
2022/07/08 02:04:07;;;;;;;;;;;27.10;99.90;;;;;;5091805;28;19956;-73
2022/07/08 02:06:33;;;;;;;;;;;27.10;99.90;;;;;;5093218;28;19935;-73
2022/07/08 02:08:58;;;;;;;;;;;27.20;99.90;;;;;;5093123;28;20194;-73
2022/07/08 02:14:08;;;;;;;;;;;27.10;99.90;;;;;;5093309;28;19991;-73
2022/07/08 02:16:34;;;;;;;;;;;27.20;99.90;;;;;;5093468;28;20248;-73
2022/07/08 02:19:00;;;;;;;;;;;27.20;99.90;;;;;;5093124;28;20004;-73
2022/07/08 02:21:26;;;;;;;;;;;27.20;99.90;;;;;;5093212;28;19951;-73
2022/07/08 02:23:51;;;;;;;;;;;27.30;99.90;;;;;;5093216;28;19912;-74
2022/07/08 02:26:17;;;;;;;;;;;27.20;99.90;;;;;;5093219;28;19908;-74
2022/07/08 02:28:43;;;;;;;;;;;27.20;99.90;;;;;;5091555;28;19914;-74
2022/07/08 02:31:09;;;;;;;;;;;27.30;99.90;;;;;;5092916;28;20017;-74
2022/07/08 02:33:34;;;;;;;;;;;27.20;99.90;;;;;;5093191;28;19904;-74
2022/07/08 02:36:00;;;;;;;;;;;27.20;99.90;;;;;;5092846;28;19970;-74
2022/07/08 02:38:26;;;;;;;;;;;27.30;99.90;;;;;;5092946;28;19908;-74
2022/07/08 02:40:52;;;;;;;;;;;27.30;99.90;;;;;;5092812;28;19904;-74
2022/07/08 02:43:18;;;;;;;;;;;27.30;99.90;;;;;;5092963;28;20325;-74
2022/07/08 02:45:43;;;;;;;;;;;27.30;99.90;;;;;;5092739;28;19965;-74
2022/07/08 02:48:09;;;;;;;;;;;27.20;99.90;;;;;;5092691;28;19904;-74
2022/07/08 02:50:35;;;;;;;;;;;27.20;99.90;;;;;;5091222;28;19904;-74
2022/07/08 02:53:01;;;;;;;;;;;27.20;99.90;;;;;;5092543;28;20006;-74
2022/07/08 02:55:27;;;;;;;;;;;27.10;99.90;;;;;;5092524;28;19954;-74
2022/07/08 02:57:52;;;;;;;;;;;27.20;99.90;;;;;;5092589;28;19991;-74
2022/07/08 03:00:18;;;;;;;;;;;27.20;99.90;;;;;;5093113;28;20018;-74
2022/07/08 03:02:44;;;;;;;;;;;27.20;99.90;;;;;;5091340;28;19919;-74
2022/07/08 03:05:10;;;;;;;;;;;27.10;99.90;;;;;;5092596;28;19912;-73
2022/07/08 03:07:36;;;;;;;;;;;27.10;99.90;;;;;;5093015;28;19904;-74
2022/07/08 03:10:02;;;;;;;;;;;27.10;99.90;;;;;;5091039;28;19908;-74
2022/07/08 03:12:28;;;;;;;;;;;27.10;99.90;;;;;;5092339;28;19916;-73
2022/07/08 03:14:53;;;;;;;;;;;27.10;99.90;;;;;;5092736;28;20330;-74
2022/07/08 03:17:19;;;;;;;;;;;27.10;99.90;;;;;;5092786;28;19916;-74
2022/07/08 03:19:45;;;;;;;;;;;27.00;99.90;;;;;;5092370;28;20312;-74
2022/07/08 03:22:11;;;;;;;;;;;27.00;99.90;;;;;;5090871;28;19920;-72
2022/07/08 03:24:37;;;;;;;;;;;27.00;99.90;;;;;;5092560;28;19924;-72
2022/07/08 03:27:03;;;;;;;;;;;27.00;99.90;;;;;;5092751;28;19915;-72
2022/07/08 03:29:29;;;;;;;;;;;27.00;99.90;;;;;;5092913;28;19911;-72
2022/07/08 03:31:55;;;;;;;;;;;26.90;99.90;;;;;;5092742;28;19904;-72
2022/07/08 03:34:21;;;;;;;;;;;26.90;99.90;;;;;;5091156;28;20327;-73
2022/07/08 03:36:50;;;;;;;;;;;26.90;99.90;;;;;;5092697;28;20279;-73
2022/07/08 03:39:15;;;;;;;;;;;26.80;99.90;;;;;;5092046;28;19977;-73
2022/07/08 03:41:41;;;;;;;;;;;26.80;99.90;;;;;;5092500;28;19982;-73
2022/07/08 03:44:07;;;;;;;;;;;26.80;99.90;;;;;;5092578;28;19908;-73
2022/07/08 03:46:33;;;;;;;;;;;26.80;99.90;;;;;;5091130;28;20212;-73
2022/07/08 03:48:59;;;;;;;;;;;26.80;99.90;;;;;;5091212;28;19999;-73
2022/07/08 03:51:24;;;;;;;;;;;26.80;99.90;;;;;;5092850;28;19986;-74
2022/07/08 03:53:50;;;;;;;;;;;26.80;99.90;;;;;;5092502;28;19954;-73
2022/07/08 03:56:16;;;;;;;;;;;26.80;99.90;;;;;;5092054;28;20367;-73
2022/07/08 03:58:42;;;;;;;;;;;26.80;99.90;;;;;;5092329;28;19908;-73
2022/07/08 04:01:08;;;;;;;;;;;26.70;99.90;;;;;;5092028;28;19904;-73
2022/07/08 04:03:35;;;;;;;;;;;26.70;99.90;;;;;;5091704;28;19941;-73
2022/07/08 04:06:00;;;;;;;;;;;26.70;99.90;;;;;;5092248;28;19910;-73
2022/07/08 04:08:26;;;;;;;;;;;26.70;99.90;;;;;;5091762;28;19986;-74
2022/07/08 04:10:52;;;;;;;;;;;26.60;99.90;;;;;;5091967;28;20015;-73
2022/07/08 04:13:18;;;;;;;;;;;26.60;99.90;;;;;;5091804;28;19915;-73
2022/07/08 04:15:44;;;;;;;;;;;26.70;99.90;;;;;;5092333;28;20294;-74
2022/07/08 04:18:09;;;;;;;;;;;26.70;99.90;;;;;;5092615;28;19904;-73
2022/07/08 04:20:35;;;;;;;;;;;26.70;99.90;;;;;;5093362;28;20201;-73
2022/07/08 04:23:01;;;;;;;;;;;26.70;99.90;;;;;;5092598;28;20054;-73
2022/07/08 04:25:27;;;;;;;;;;;26.70;99.90;;;;;;5092648;28;19947;-73
2022/07/08 04:27:53;;;;;;;;;;;26.70;99.90;;;;;;5092719;28;19911;-74
2022/07/08 04:30:18;;;;;;;;;;;26.80;99.90;;;;;;5092794;28;19904;-74
2022/07/08 04:32:44;;;;;;;;;;;26.80;99.90;;;;;;5092713;28;19904;-73
2022/07/08 04:35:10;;;;;;;;;;;26.80;99.90;;;;;;5093157;28;19923;-74
2022/07/08 04:37:36;;;;;;;;;;;26.80;99.90;;;;;;5092880;28;19908;-73
2022/07/08 04:40:02;;;;;;;;;;;26.90;99.90;;;;;;5091588;28;19915;-73
2022/07/08 04:42:27;;;;;;;;;;;27.00;99.90;;;;;;5093263;28;20074;-73
2022/07/08 04:44:53;;;;;;;;;;;27.10;99.90;;;;;;5091536;28;19908;-73
2022/07/08 04:47:19;;;;;;;;;;;27.00;99.90;;;;;;5092939;28;19950;-73
2022/07/08 04:49:45;;;;;;;;;;;26.90;99.90;;;;;;5091231;28;19904;-73
2022/07/08 04:52:11;;;;;;;;;;;26.90;99.90;;;;;;5092495;28;19904;-72
2022/07/08 04:54:37;;;;;;;;;;;26.90;99.90;;;;;;5092854;28;19925;-72
2022/07/08 04:57:04;;;;;;;;;;;26.90;99.90;;;;;;5092324;28;20050;-73
2022/07/08 04:59:30;;;;;;;;;;;27.00;99.90;;;;;;5092652;28;20299;-73
2022/07/08 05:01:55;;;;;;;;;;;27.00;99.90;;;;;;5092544;28;19916;-73
2022/07/08 05:04:21;;;;;;;;;;;27.00;99.90;;;;;;5092571;28;19915;-73
2022/07/08 05:06:47;;;;;;;;;;;27.10;99.90;;;;;;5091206;28;20212;-74
2022/07/08 05:09:13;;;;;;;;;;;27.90;99.90;;;;;;5092582;28;20271;-73
2022/07/08 05:11:39;;;;;;;;;;;29.30;99.90;;;;;;5092505;28;20003;-74
2022/07/08 05:14:05;;;;;;;;;;;30.90;99.90;;;;;;5091188;28;20014;-74
2022/07/08 05:16:31;;;;;;;;;;;32.50;99.90;;;;;;5095716;28;20337;-74
2022/07/08 05:18:56;;;;;;;;;;;34.50;99.90;;;;;;5096604;28;19911;-74
2022/07/08 05:21:22;;;;;;;;;;;36.30;97.40;;;;;;5096084;28;19914;-74
2022/07/08 05:23:49;;;;;;;;;;;37.80;93.30;;;;;;5096881;28;19908;-74
2022/07/08 05:26:14;;;;;;;;;;;38.20;91.60;;;;;;5095970;28;20348;-74
2022/07/08 05:28:40;;;;;;;;;;;38.40;90.10;;;;;;5094858;28;19948;-74
2022/07/08 05:31:06;;;;;;;;;;;38.10;90.00;;;;;;5094572;28;19911;-75
2022/07/08 05:33:32;;;;;;;;;;;39.10;88.20;;;;;;5094763;28;19998;-75
2022/07/08 05:35:58;;;;;;;;;;;40.00;83.60;;;;;;5095844;28;19911;-75
2022/07/08 05:38:23;;;;;;;;;;;40.40;81.60;;;;;;5096099;28;19997;-75
2022/07/08 05:40:49;;;;;;;;;;;40.40;80.00;;;;;;5095878;28;19904;-75
2022/07/08 05:43:15;;;;;;;;;;;39.20;80.80;;;;;;5096085;28;20316;-75
2022/07/08 05:45:41;;;;;;;;;;;37.80;82.80;;;;;;5094479;28;20272;-75
2022/07/08 05:48:07;;;;;;;;;;;38.30;83.60;;;;;;5095747;28;20299;-75
2022/07/08 05:50:32;;;;;;;;;;;39.30;81.40;;;;;;5095474;28;19911;-75
2022/07/08 05:52:58;;;;;;;;;;;40.80;78.60;;;;;;5095222;28;19912;-75
2022/07/08 05:55:24;;;;;;;;;;;42.60;75.40;;;;;;5095152;28;20266;-75
2022/07/08 05:57:50;;;;;;;;;;;44.00;70.80;;;;;;5095517;28;19947;-76
2022/07/08 06:00:16;;;;;;;;;;;44.90;67.60;;;;;;5094701;28;19924;-74
2022/07/08 06:02:42;;;;;;;;;;;45.80;65.10;;;;;;5094985;28;19924;-74
2022/07/08 06:05:08;;;;;;;;;;;46.40;62.50;;;;;;5095303;28;19949;-74
2022/07/08 06:07:33;;;;;;;;;;;47.00;60.70;;;;;;5093444;28;19903;-75
2022/07/08 06:10:00;;;;;;;;;;;46.80;59.30;;;;;;5095201;28;19908;-75
2022/07/08 06:12:26;;;;;;;;;;;47.40;59.00;;;;;;5094596;28;20386;-75
2022/07/08 06:14:51;;;;;;;;;;;47.20;58.80;;;;;;5093358;28;20382;-76
2022/07/08 06:17:17;;;;;;;;;;;46.90;57.60;;;;;;5095252;28;20370;-75
2022/07/08 06:19:43;;;;;;;;;;;47.50;58.00;;;;;;5095481;28;19980;-75
2022/07/08 06:22:09;;;;;;;;;;;47.60;57.10;;;;;;5095515;28;19967;-75
2022/07/08 06:24:35;;;;;;;;;;;47.80;56.20;;;;;;5095081;28;19908;-75
2022/07/08 06:27:00;;;;;;;;;;;47.90;56.00;;;;;;5094650;28;19904;-75
2022/07/08 06:29:26;;;;;;;;;;;48.00;55.00;;;;;;5094745;28;19969;-75
2022/07/08 06:31:52;;;;;;;;;;;48.00;54.60;;;;;;5094872;28;19954;-75
2022/07/08 06:34:18;;;;;;;;;;;47.70;55.10;;;;;;5095105;28;19994;-75
2022/07/08 06:36:44;;;;;;;;;;;48.00;54.80;;;;;;5095091;28;19970;-75
2022/07/08 06:39:09;;;;;;;;;;;47.80;54.60;;;;;;5094730;28;19957;-75
2022/07/08 06:41:35;;;;;;;;;;;47.90;54.40;;;;;;5094714;28;19915;-75
2022/07/08 06:44:01;;;;;;;;;;;47.60;54.40;;;;;;5094721;28;20382;-75
2022/07/08 06:46:28;;;;;;;;;;;47.00;55.20;;;;;;5094611;28;20374;-75
2022/07/08 06:48:54;;;;;;;;;;;46.50;55.90;;;;;;5093370;28;19904;-75
2022/07/08 06:51:20;;;;;;;;;;;47.10;55.50;;;;;;5094807;28;19957;-76
2022/07/08 06:56:30;;;;;;;;;;;47.10;55.80;;;;;;5094385;28;20399;-74
2022/07/08 06:58:56;;;;;;;;;;;47.30;54.70;;;;;;5094977;28;19908;-74
2022/07/08 07:01:22;;;;;;;;;;;47.80;54.70;;;;;;5094718;28;19994;-74
2022/07/08 07:03:47;;;;;;;;;;;47.60;54.30;;;;;;5093062;28;19942;-74
2022/07/08 07:06:13;;;;;;;;;;;48.60;53.50;;;;;;5094318;28;20275;-74
2022/07/08 07:08:39;;;;;;;;;;;48.50;52.90;;;;;;5094448;28;19937;-74
2022/07/08 07:11:05;;;;;;;;;;;48.60;52.90;;;;;;5094436;28;19937;-75
2022/07/08 07:13:30;;;;;;;;;;;48.40;52.60;;;;;;5094369;28;19927;-75
2022/07/08 07:15:56;;;;;;;;;;;48.40;52.70;;;;;;5094170;28;19904;-75
2022/07/08 07:18:22;;;;;;;;;;;47.70;52.40;;;;;;5094285;28;20275;-75
2022/07/08 07:20:48;;;;;;;;;;;46.50;53.00;;;;;;5094101;28;19904;-74
2022/07/08 07:23:14;;;;;;;;;;;45.40;54.90;;;;;;5094641;28;19912;-74
2022/07/08 07:25:40;;;;;;;;;;;44.20;55.20;;;;;;5094015;28;19970;-74
2022/07/08 07:28:05;;;;;;;;;;;43.40;57.20;;;;;;5094495;28;19903;-74
2022/07/08 07:30:31;;;;;;;;;;;42.80;57.60;;;;;;5093773;28;20364;-75
2022/07/08 07:32:57;;;;;;;;;;;42.20;57.60;;;;;;5093948;28;19957;-75
2022/07/08 07:35:23;;;;;;;;;;;41.00;58.50;;;;;;5094337;28;20351;-74
2022/07/08 07:37:49;;;;;;;;;;;40.60;59.60;;;;;;5093796;28;19922;-75
2022/07/08 07:40:15;;;;;;;;;;;39.60;60.40;;;;;;5091385;28;20014;-74
2022/07/08 07:42:41;;;;;;;;;;;38.80;62.50;;;;;;5093497;28;20008;-75
2022/07/08 07:45:07;;;;;;;;;;;38.20;63.10;;;;;;5093518;28;19911;-74
2022/07/08 07:47:33;;;;;;;;;;;37.90;64.50;;;;;;5092152;28;19908;-74
2022/07/08 07:49:59;;;;;;;;;;;37.50;65.40;;;;;;5093661;28;19957;-74
2022/07/08 07:52:24;;;;;;;;;;;37.30;66.00;;;;;;5093480;28;19903;-75
2022/07/08 07:54:50;;;;;;;;;;;37.10;66.30;;;;;;5093569;28;19950;-75
2022/07/08 07:57:16;;;;;;;;;;;37.40;66.50;;;;;;5093103;28;19911;-75
2022/07/08 07:59:43;;;;;;;;;;;37.70;65.70;;;;;;5093425;28;20374;-75
2022/07/08 08:02:09;;;;;;;;;;;38.00;64.00;;;;;;5092523;28;19982;-74
2022/07/08 08:04:45;;;;;;;;;;;38.40;64.40;;;;;;5092496;28;20003;-75
2022/07/08 08:07:11;;;;;;;;;;;38.70;64.90;;;;;;5090327;28;19903;-74
2022/07/08 08:09:36;;;;;;;;;;;38.80;64.70;;;;;;5092225;28;19931;-74
2022/07/08 08:12:02;;;;;;;;;;;38.90;64.60;;;;;;5092113;28;20372;-74
2022/07/08 08:14:28;;;;;;;;;;;38.80;66.80;;;;;;5092563;28;19996;-74
2022/07/08 08:16:54;;;;;;;;;;;38.70;67.90;;;;;;5092523;28;19904;-74
2022/07/08 08:19:20;;;;;;;;;;;38.80;68.70;;;;;;5091144;28;19904;-74
2022/07/08 08:21:45;;;;;;;;;;;38.80;68.70;;;;;;5092629;28;19908;-74
2022/07/08 08:24:11;;;;;;;;;;;38.80;69.00;;;;;;5092703;28;19920;-74
2022/07/08 08:26:37;;;;;;;;;;;38.70;69.80;;;;;;5092818;28;19911;-74
2022/07/08 08:29:03;;;;;;;;;;;38.80;70.50;;;;;;5092658;28;19908;-74
2022/07/08 08:31:29;;;;;;;;;;;38.70;71.00;;;;;;5092458;28;19904;-74
2022/07/08 08:33:55;;;;;;;;;;;38.20;71.90;;;;;;5092941;28;19904;-74
2022/07/08 08:36:23;;;;;;;;;;;38.30;71.70;;;;;;5092588;28;19961;-74
2022/07/08 08:38:50;;;;;;;;;;;38.10;70.90;;;;;;5092671;28;20257;-78
2022/07/08 08:41:16;;;;;;;;;;;38.10;71.00;;;;;;5093113;28;19948;-78
2022/07/08 08:43:41;;;;;;;;;;;38.10;70.20;;;;;;5092816;28;19958;-78
2022/07/08 08:46:10;;;;;;;;;;;38.10;70.20;;;;;;5092808;28;19966;-78
2022/07/08 08:48:38;;;;;;;;;;;38.20;69.00;;;;;;5091171;28;19911;-74
2022/07/08 08:51:07;;;;;;;;;;;38.20;68.50;;;;;;5095155;28;20264;-74
2022/07/08 08:53:42;;;;;;;;;;;38.00;68.40;;;;;;5096237;28;19912;-74
2022/07/08 08:56:09;;;;;;;;;;;37.80;68.10;;;;;;5096663;28;20268;-75
2022/07/08 08:58:36;;;;;;;;;;;37.60;68.60;;;;;;5094858;28;19957;-75
2022/07/08 09:01:02;;;;;;;;;;;37.80;68.30;;;;;;5096761;28;19949;-74
2022/07/08 09:03:27;;;;;;;;;;;37.90;68.00;;;;;;5096161;28;20011;-74
2022/07/08 09:05:53;;;;;;;;;;;37.70;67.70;;;;;;5096706;28;19994;-74
2022/07/08 09:08:19;;;;;;;;;;;37.60;68.00;;;;;;5096071;28;19911;-74
2022/07/08 09:10:45;;;;;;;;;;;37.50;68.10;;;;;;5095889;28;19915;-75
2022/07/08 09:13:11;;;;;;;;;;;37.40;68.40;;;;;;5096672;28;20336;-75
2022/07/08 09:15:38;;;;;;;;;;;37.20;68.40;;;;;;5095936;28;19904;-75
2022/07/08 09:18:05;;;;;;;;;;;37.00;69.10;;;;;;5095932;28;19914;-75
2022/07/08 09:20:43;;;;;;;;;;;37.10;69.50;;;;;;5096196;28;20316;-75
2022/07/08 09:23:11;;;;;;;;;;;36.90;69.70;;;;;;5096002;28;20275;-75
2022/07/08 09:25:37;;;;;;;;;;;36.50;69.90;;;;;;5095947;28;19935;-75
2022/07/08 09:28:03;;;;;;;;;;;36.70;71.30;;;;;;5095676;28;19916;-74
2022/07/08 09:30:32;;;;;;;;;;;36.70;72.60;;;;;;5095809;28;19903;-75
2022/07/08 09:32:58;;;;;;;;;;;36.70;71.50;;;;;;5094364;28;19904;-75
2022/07/08 09:35:35;;;;;;;;;;;36.80;71.70;;;;;;5094064;28;20306;-75
2022/07/08 09:38:01;;;;;;;;;;;36.60;72.00;;;;;;5095492;28;19911;-74
2022/07/08 09:40:27;;;;;;;;;;;36.40;71.80;;;;;;5095613;28;19911;-74
2022/07/08 09:42:53;;;;;;;;;;;36.20;72.30;;;;;;5095210;28;19912;-74
2022/07/08 09:45:21;;;;;;;;;;;36.40;71.80;;;;;;5095504;28;20213;-74
2022/07/08 09:47:51;;;;;;;;;;;36.50;71.00;;;;;;5095736;28;20423;-74
2022/07/08 09:50:17;;;;;;;;;;;36.20;72.00;;;;;;5095302;28;19991;-74
2022/07/08 09:52:43;;;;;;;;;;;36.10;72.70;;;;;;5095247;28;20007;-74
2022/07/08 09:55:08;;;;;;;;;;;35.90;73.00;;;;;;5093945;28;19916;-73
2022/07/08 09:57:34;;;;;;;;;;;35.40;73.90;;;;;;5093613;28;20208;-74
2022/07/08 10:00:01;;;;;;;;;;;35.70;74.60;;;;;;5093696;28;19970;-74
2022/07/08 10:02:27;;;;;;;;;;;35.90;74.40;;;;;;5092680;28;19919;-74
2022/07/08 10:04:54;;;;;;;;;;;36.00;74.90;;;;;;5095050;28;20224;-74
2022/07/08 10:07:20;;;;;;;;;;;35.90;74.90;;;;;;5095170;28;19904;-75
2022/07/08 10:09:46;;;;;;;;;;;35.90;75.00;;;;;;5095105;28;20370;-75
2022/07/08 10:12:16;;;;;;;;;;;35.80;75.20;;;;;;5094387;28;19916;-75
2022/07/08 10:14:46;;;;;;;;;;;35.90;75.20;;;;;;5094466;28;19998;-75
2022/07/08 10:17:14;;;;;;;;;;;35.80;75.20;;;;;;5095179;28;19908;-74
2022/07/08 10:19:40;;;;;;;;;;;35.80;75.70;;;;;;5095238;28;19904;-75
2022/07/08 10:22:08;;;;;;;;;;;35.20;76.60;;;;;;5095115;28;20002;-75
2022/07/08 10:24:38;;;;;;;;;;;35.00;77.90;;;;;;5095335;28;19947;-75
2022/07/08 10:27:04;;;;;;;;;;;34.90;78.00;;;;;;5094899;28;20351;-75
2022/07/08 10:29:30;;;;;;;;;;;34.80;79.00;;;;;;5095435;28;19904;-75
2022/07/08 10:31:57;;;;;;;;;;;34.40;79.60;;;;;;5094937;28;19911;-75
2022/07/08 10:34:30;;;;;;;;;;;34.40;79.70;;;;;;5095127;28;19911;-75
2022/07/08 10:36:56;;;;;;;;;;;33.70;81.30;;;;;;5094851;28;19999;-75
2022/07/08 10:39:28;;;;;;;;;;;33.60;81.80;;;;;;5095238;28;19904;-75
2022/07/08 10:41:58;;;;;;;;;;;33.60;82.30;;;;;;5095180;28;19911;-75
2022/07/08 10:44:42;;;;;;;;;;;33.30;82.50;;;;;;5093423;28;19911;-75
2022/07/08 10:47:09;;;;;;;;;;;33.60;83.00;;;;;;5094384;28;19907;-74
2022/07/08 10:49:48;;;;;;;;;;;33.50;81.80;;;;;;5094559;28;20307;-75
2022/07/08 10:52:14;;;;;;;;;;;33.70;81.90;;;;;;5094003;28;19947;-74
2022/07/08 10:54:41;;;;;;;;;;;33.80;81.70;;;;;;5093969;28;19927;-74
2022/07/08 10:57:09;;;;;;;;;;;33.90;81.60;;;;;;5093959;28;19910;-75
2022/07/08 10:59:38;;;;;;;;;;;34.00;81.80;;;;;;5094731;28;20034;-74
2022/07/08 11:02:13;;;;;;;;;;;33.90;81.70;;;;;;5093992;28;19915;-74
2022/07/08 11:04:40;;;;;;;;;;;33.80;82.10;;;;;;5092724;28;19915;-75
2022/07/08 11:07:22;;;;;;;;;;;33.80;82.60;;;;;;5094055;28;20002;-75
2022/07/08 11:10:14;;;;;;;;;;;33.60;83.00;;;;;;5094630;28;19904;-75
2022/07/08 11:12:46;;;;;;;;;;;33.70;83.00;;;;;;5090862;28;19922;-75
2022/07/08 11:15:19;;;;;;;;;;;33.80;83.00;;;;;;5092963;28;19910;-75
2022/07/08 11:17:51;;;;;;;;;;;33.80;83.00;;;;;;5094103;28;20359;-75
2022/07/08 11:20:20;;;;;;;;;;;33.70;83.20;;;;;;5094336;28;20237;-74
2022/07/08 11:22:47;;;;;;;;;;;33.80;83.10;;;;;;5094244;28;19912;-74
2022/07/08 11:25:13;;;;;;;;;;;33.60;83.40;;;;;;5094369;28;19908;-73
2022/07/08 11:27:40;;;;;;;;;;;33.60;83.90;;;;;;5093652;28;19911;-73
2022/07/08 11:30:16;;;;;;;;;;;33.70;83.40;;;;;;5093763;28;19926;-75
2022/07/08 11:32:42;;;;;;;;;;;33.90;83.00;;;;;;5093797;28;19908;-74
2022/07/08 11:35:08;;;;;;;;;;;33.90;83.20;;;;;;5093997;28;19954;-73
2022/07/08 11:37:41;;;;;;;;;;;33.90;82.80;;;;;;5093440;28;19964;-73
2022/07/08 11:40:08;;;;;;;;;;;34.00;82.60;;;;;;5093229;28;19904;-74
2022/07/08 11:42:40;;;;;;;;;;;34.10;82.00;;;;;;5093680;28;19916;-74
2022/07/08 11:45:07;;;;;;;;;;;34.10;81.70;;;;;;5093397;28;19904;-74
2022/07/08 11:47:33;;;;;;;;;;;34.00;81.50;;;;;;5093358;28;19915;-74
2022/07/08 11:49:59;;;;;;;;;;;34.00;80.90;;;;;;5094034;28;19904;-74
2022/07/08 11:52:26;;;;;;;;;;;33.80;81.70;;;;;;5093012;28;20003;-74
2022/07/08 11:54:53;;;;;;;;;;;33.80;82.00;;;;;;5093034;28;19904;-73
2022/07/08 11:57:21;;;;;;;;;;;33.80;82.10;;;;;;5093061;28;19927;-74
2022/07/08 11:59:48;;;;;;;;;;;33.60;81.00;;;;;;5092945;28;19904;-74
2022/07/08 12:02:19;;;;;;;;;;;33.60;80.30;;;;;;5092755;28;19988;-73
2022/07/08 12:04:49;;;;;;;;;;;33.40;80.50;;;;;;5093050;28;20348;-74
2022/07/08 12:07:19;;;;;;;;;;;33.40;81.50;;;;;;5091572;28;19904;-74
2022/07/08 12:09:54;;;;;;;;;;;33.50;81.60;;;;;;5092866;28;19951;-73
2022/07/08 12:12:23;;;;;;;;;;;33.50;81.70;;;;;;5092514;28;20000;-74
2022/07/08 12:14:50;;;;;;;;;;;33.50;81.50;;;;;;5091318;28;19948;-74
2022/07/08 12:17:26;;;;;;;;;;;33.50;81.30;;;;;;5093020;28;19947;-74
2022/07/08 12:19:53;;;;;;;;;;;33.50;81.10;;;;;;5093053;28;20000;-73
2022/07/08 12:22:37;;;;;;;;;;;33.40;80.90;;;;;;5093260;28;19982;-74
2022/07/08 12:25:03;;;;;;;;;;;33.30;81.30;;;;;;5092599;28;19933;-73
2022/07/08 12:27:30;;;;;;;;;;;33.20;81.30;;;;;;5093576;28;19995;-74
2022/07/08 12:30:01;;;;;;;;;;;33.10;81.00;;;;;;5092921;28;19911;-73
2022/07/08 12:32:35;;;;;;;;;;;32.90;82.00;;;;;;5093206;28;19911;-73
2022/07/08 12:35:06;;;;;;;;;;;32.70;82.60;;;;;;5092885;28;19911;-73
2022/07/08 12:37:32;;;;;;;;;;;32.60;83.60;;;;;;5093058;28;19904;-73
2022/07/08 12:40:10;;;;;;;;;;;32.60;84.10;;;;;;5093008;28;19904;-73
2022/07/08 12:42:36;;;;;;;;;;;32.30;85.30;;;;;;5093161;28;19981;-73
2022/07/08 12:45:12;;;;;;;;;;;32.40;86.10;;;;;;5093005;28;20359;-74
2022/07/08 12:47:38;;;;;;;;;;;32.20;86.80;;;;;;5093120;28;19911;-74
2022/07/08 12:50:06;;;;;;;;;;;32.50;86.80;;;;;;5091134;28;20244;-74
2022/07/08 12:52:32;;;;;;;;;;;32.60;86.20;;;;;;5092778;28;19904;-74
2022/07/08 12:54:57;;;;;;;;;;;32.60;86.70;;;;;;5092506;28;19911;-73
2022/07/08 12:57:23;;;;;;;;;;;32.70;87.00;;;;;;5092347;28;19908;-73
2022/07/08 12:59:49;;;;;;;;;;;32.70;86.10;;;;;;5091126;28;20217;-74
2022/07/08 13:02:15;;;;;;;;;;;32.70;85.90;;;;;;5091008;28;19912;-73
2022/07/08 13:04:41;;;;;;;;;;;32.60;85.90;;;;;;5092557;28;19904;-74
2022/07/08 13:07:11;;;;;;;;;;;32.60;86.00;;;;;;5091046;28;20069;-73
2022/07/08 13:09:37;;;;;;;;;;;32.50;86.40;;;;;;5092427;28;19904;-73
2022/07/08 13:12:04;;;;;;;;;;;32.40;86.70;;;;;;5091995;28;20268;-73
2022/07/08 13:14:30;;;;;;;;;;;32.40;86.80;;;;;;5092333;28;20349;-74
2022/07/08 13:16:58;;;;;;;;;;;32.40;87.20;;;;;;5092738;28;19903;-74
2022/07/08 13:19:24;;;;;;;;;;;32.40;86.70;;;;;;5092580;28;19904;-73
2022/07/08 13:21:50;;;;;;;;;;;32.50;86.80;;;;;;5092996;28;19915;-74
2022/07/08 13:24:16;;;;;;;;;;;32.40;87.50;;;;;;5092497;28;19908;-74
2022/07/08 13:26:42;;;;;;;;;;;32.30;87.70;;;;;;5093007;28;19904;-74
2022/07/08 13:29:07;;;;;;;;;;;32.20;87.80;;;;;;5092570;28;20335;-74
2022/07/08 13:31:33;;;;;;;;;;;32.20;88.40;;;;;;5092331;28;19915;-74
2022/07/08 13:33:59;;;;;;;;;;;32.10;88.40;;;;;;5092631;28;19950;-74
2022/07/08 13:36:26;;;;;;;;;;;32.20;88.40;;;;;;5092227;28;19908;-74
2022/07/08 13:38:52;;;;;;;;;;;32.40;88.30;;;;;;5095692;28;20408;-74
2022/07/08 13:41:19;;;;;;;;;;;32.30;88.50;;;;;;5094353;28;19904;-74
2022/07/08 13:43:44;;;;;;;;;;;32.30;88.40;;;;;;5096188;28;19919;-74
2022/07/08 13:46:13;;;;;;;;;;;32.20;88.90;;;;;;5095723;28;19904;-74
2022/07/08 13:48:39;;;;;;;;;;;32.40;88.00;;;;;;5094443;28;19903;-74
2022/07/08 13:51:05;;;;;;;;;;;32.60;87.40;;;;;;5095744;28;20281;-74
2022/07/08 13:53:38;;;;;;;;;;;32.70;87.30;;;;;;5095607;28;19985;-74
2022/07/08 13:56:04;;;;;;;;;;;32.90;86.30;;;;;;5093183;28;19908;-74
2022/07/08 13:58:30;;;;;;;;;;;33.00;85.50;;;;;;5094895;28;19908;-74
2022/07/08 14:00:56;;;;;;;;;;;32.90;85.70;;;;;;5095025;28;19976;-74
2022/07/08 14:03:21;;;;;;;;;;;32.80;85.20;;;;;;5095341;28;19916;-73
2022/07/08 14:05:47;;;;;;;;;;;32.80;84.90;;;;;;5095135;28;19957;-73
2022/07/08 14:08:13;;;;;;;;;;;32.80;84.60;;;;;;5094787;28;19947;-74
2022/07/08 14:10:39;;;;;;;;;;;32.90;84.40;;;;;;5093298;28;19922;-75
2022/07/08 14:13:05;;;;;;;;;;;32.70;83.60;;;;;;5094919;28;19908;-74
2022/07/08 14:15:30;;;;;;;;;;;32.70;84.10;;;;;;5094771;28;19972;-75
2022/07/08 14:17:56;;;;;;;;;;;32.80;83.40;;;;;;5094795;28;19910;-74
2022/07/08 14:20:22;;;;;;;;;;;33.00;83.00;;;;;;5094956;28;19925;-75